Heiskell, Tennessee
Current Conditions -  °F | °C
As of 6:53 PM on Sunday 23 Nov 2014 (Local Time) from KOQT Reporting Station
Light Rain Light Rain  
Wind Chill: 54°   Ceiling: 5500
Heat Index: 54°   Visibility: 8mi
Dew Point: 52°   Wind: 3mph
Humidity: 93%   Direction: 60°ENE
Pressure: 29.58"   Gusts: NA
Location:  36.08°N, 84.05°W
Report Text: KOQT 232353Z AUTO 06003KT 8SM -RA FEW041 BKN055 OVC100 12/11 A2958 RMK AO2 SLP016 P0011 60030 T01220111 10122 20100 56041
Loading
Personal Weather Stations






























Interactive Weather Map New forecast layout! Learn more

10-Day Weather Forecast

Advertisements
Track Severe Weather on mobile